Time;durP1;ratioP1;P1;durP2;ratioP2;P2;SDS_P1;SDS_P2;PMS_P1;PMS_P2;Temp;Humidity;BMP_temperature;BMP_pressure;BME280_temperature;BME280_humidity;BME280_pressure;Samples;Min_cycle;Max_cycle;Signal;HPM_P1;HPM_P2
2024/03/30 00:00:00;;;;;;;5.60;2.20;;;;;;;11.25;58.43;98299.91;106266;1254;96609;-81
2024/03/30 00:02:31;;;;;;;6.60;2.30;;;;;;;11.22;58.28;98303.93;106373;1256;107659;-82
2024/03/30 00:04:58;;;;;;;10.00;2.60;;;;;;;11.16;58.45;98300.00;106139;1257;96654;-81
2024/03/30 00:07:26;;;;;;;3.90;2.20;;;;;;;11.12;58.27;98298.72;107156;1253;96601;-82
2024/03/30 00:09:54;;;;;;;6.60;3.10;;;;;;;11.08;58.45;98299.82;106200;1257;109998;-81
2024/03/30 00:12:21;;;;;;;9.40;2.90;;;;;;;11.06;58.43;98304.23;106153;1256;97940;-81
2024/03/30 00:14:50;;;;;;;9.40;3.80;;;;;;;11.00;58.39;98303.36;106272;1253;107160;-82
2024/03/30 00:17:17;;;;;;;10.90;3.90;;;;;;;10.91;58.54;98299.36;106202;1256;96713;-82
2024/03/30 00:19:45;;;;;;;9.80;3.60;;;;;;;10.87;58.56;98297.71;106179;1254;96556;-83
2024/03/30 00:22:13;;;;;;;10.00;4.10;;;;;;;10.87;58.59;98295.40;106024;1256;110099;-82
2024/03/30 00:24:40;;;;;;;7.80;3.60;;;;;;;10.84;58.61;98291.95;105930;1258;96612;-80
2024/03/30 00:27:08;;;;;;;8.60;3.40;;;;;;;10.78;58.73;98285.86;105953;1257;107217;-82
2024/03/30 00:29:36;;;;;;;7.80;3.00;;;;;;;10.73;58.73;98282.23;105951;1257;96435;-82
2024/03/30 00:32:04;;;;;;;5.80;2.60;;;;;;;10.69;58.86;98277.45;106546;1256;96512;-82
2024/03/30 00:34:31;;;;;;;7.30;2.70;;;;;;;10.65;58.85;98277.27;105681;1257;110031;-83
2024/03/30 00:36:59;;;;;;;4.80;2.30;;;;;;;10.61;59.01;98279.20;105781;1254;96534;-80
2024/03/30 00:39:27;;;;;;;4.80;2.30;;;;;;;10.58;58.98;98273.60;105682;1257;107565;-83
2024/03/30 00:41:54;;;;;;;5.10;2.30;;;;;;;10.54;59.12;98264.88;105624;1257;96737;-81
2024/03/30 00:44:22;;;;;;;6.60;2.30;;;;;;;10.52;59.06;98263.13;105805;1257;96642;-82
2024/03/30 00:46:50;;;;;;;7.10;2.90;;;;;;;10.49;59.28;98261.59;105710;1253;109944;-82
2024/03/30 00:49:17;;;;;;;4.20;2.20;;;;;;;10.52;59.36;98258.86;106218;1253;97537;-81
2024/03/30 00:51:45;;;;;;;5.50;2.00;;;;;;;10.56;59.37;98256.38;105739;1256;106969;-81
2024/03/30 00:54:13;;;;;;;7.00;2.10;;;;;;;10.60;59.47;98256.20;105817;1254;96687;-82
2024/03/30 00:56:40;;;;;;;6.40;2.00;;;;;;;10.66;59.52;98252.89;105806;1256;96545;-81
2024/03/30 00:59:08;;;;;;;9.00;2.50;;;;;;;10.70;59.63;98250.04;105648;1275;109407;-81
2024/03/30 01:01:35;;;;;;;5.40;1.90;;;;;;;10.77;59.55;98248.21;105877;1253;96690;-81
2024/03/30 01:04:03;;;;;;;3.10;1.70;;;;;;;10.82;59.76;98246.66;105915;1255;108123;-81
2024/03/30 01:06:31;;;;;;;4.60;1.90;;;;;;;10.85;59.66;98248.34;106408;1253;97631;-80
2024/03/30 01:08:59;;;;;;;8.00;2.00;;;;;;;10.90;59.77;98250.98;106094;1256;97443;-81
2024/03/30 01:11:27;;;;;;;5.70;1.90;;;;;;;10.93;59.85;98244.85;105909;1252;109581;-83
2024/03/30 01:13:55;;;;;;;5.50;1.80;;;;;;;10.97;59.85;98241.30;106061;1253;96591;-81
2024/03/30 01:16:23;;;;;;;8.00;2.00;;;;;;;11.01;59.85;98242.37;106016;1266;107560;-82
2024/03/30 01:18:51;;;;;;;4.90;2.10;;;;;;;11.04;59.94;98244.08;105897;1257;96684;-82
2024/03/30 01:21:20;;;;;;;9.60;2.10;;;;;;;11.06;60.03;98245.33;106215;1253;96524;-82
2024/03/30 01:23:50;;;;;;;5.80;1.80;;;;;;;11.09;60.07;98248.29;106045;1256;109870;-82
2024/03/30 01:26:19;;;;;;;5.10;1.80;;;;;;;11.11;60.07;98254.48;105895;1258;96677;-82
2024/03/30 01:28:48;;;;;;;5.40;2.10;;;;;;;11.12;60.00;98255.45;106080;1257;107123;-82
2024/03/30 01:31:15;;;;;;;3.20;1.60;;;;;;;11.15;60.24;98250.43;105854;1253;96615;-82
2024/03/30 01:33:43;;;;;;;6.10;2.00;;;;;;;11.18;60.18;98248.94;105962;1257;97813;-82
2024/03/30 01:36:11;;;;;;;4.30;1.90;;;;;;;11.21;60.31;98248.83;105761;1253;109089;-83
2024/03/30 01:38:39;;;;;;;6.30;2.40;;;;;;;11.26;60.19;98244.10;105868;1265;97502;-82
2024/03/30 01:41:09;;;;;;;5.40;1.90;;;;;;;11.30;60.29;98242.20;106236;1257;107684;-82
2024/03/30 01:43:36;;;;;;;4.80;1.70;;;;;;;11.30;60.39;98237.71;105985;1254;96610;-82
2024/03/30 01:46:05;;;;;;;8.40;2.00;;;;;;;11.31;60.40;98238.70;106173;1253;97568;-81
2024/03/30 01:48:33;;;;;;;4.80;1.70;;;;;;;11.32;60.28;98236.86;106247;1256;109767;-81
2024/03/30 01:51:01;;;;;;;5.30;2.10;;;;;;;11.31;60.41;98237.58;105521;1257;96595;-84
2024/03/30 01:53:30;;;;;;;7.60;2.50;;;;;;;11.32;60.41;98234.20;105465;1259;107712;-82
2024/03/30 01:56:10;;;;;;;4.40;2.00;;;;;;;11.35;60.48;98241.05;105444;1257;98041;-82
2024/03/30 01:58:38;;;;;;;5.60;1.80;;;;;;;11.36;60.52;98239.17;105607;1261;96695;-81
2024/03/30 02:01:06;;;;;;;7.50;2.30;;;;;;;11.39;60.60;98238.51;105618;1254;109695;-80
2024/03/30 02:03:34;;;;;;;5.60;2.20;;;;;;;11.42;60.58;98237.73;106400;1253;96604;-81
2024/03/30 02:06:03;;;;;;;6.30;2.20;;;;;;;11.47;60.69;98238.70;105957;1257;106365;-82
2024/03/30 02:08:31;;;;;;;6.60;1.80;;;;;;;11.47;60.56;98239.23;106712;1256;96611;-82
2024/03/30 02:11:00;;;;;;;4.00;2.00;;;;;;;11.45;60.70;98239.23;105998;1254;97859;-82
2024/03/30 02:13:29;;;;;;;5.70;2.20;;;;;;;11.46;60.81;98238.64;105957;1254;110635;-82
2024/03/30 02:15:57;;;;;;;5.10;2.00;;;;;;;11.48;60.83;98245.34;105949;1257;97267;-81
2024/03/30 02:18:25;;;;;;;7.50;2.40;;;;;;;11.47;60.73;98246.02;105820;1266;107331;-79
2024/03/30 02:20:52;;;;;;;6.40;2.30;;;;;;;11.45;60.72;98249.13;105804;1254;96690;-81
2024/03/30 02:23:20;;;;;;;6.70;2.10;;;;;;;11.42;60.73;98250.52;105640;1258;96619;-82
2024/03/30 02:25:48;;;;;;;4.00;1.90;;;;;;;11.42;60.89;98252.95;106217;1256;109907;-81
2024/03/30 02:28:16;;;;;;;8.90;2.10;;;;;;;11.42;61.03;98251.73;105642;1256;96668;-79
2024/03/30 02:30:44;;;;;;;5.80;2.10;;;;;;;11.43;60.95;98251.54;105457;1258;106338;-82
2024/03/30 02:33:11;;;;;;;4.50;2.10;;;;;;;11.46;61.05;98253.39;105888;1254;96649;-81
2024/03/30 02:35:39;;;;;;;8.80;2.10;;;;;;;11.51;61.06;98254.02;105498;1257;96613;-82
2024/03/30 02:38:07;;;;;;;8.50;3.30;;;;;;;11.54;61.15;98253.52;105455;1258;109582;-81
2024/03/30 02:40:37;;;;;;;5.50;1.90;;;;;;;11.57;61.19;98259.46;105893;1253;96624;-82
2024/03/30 02:43:06;;;;;;;5.50;2.10;;;;;;;11.56;61.14;98253.91;106361;1257;107296;-82
2024/03/30 02:45:34;;;;;;;4.80;1.80;;;;;;;11.59;61.33;98254.70;105939;1253;96642;-81
2024/03/30 02:48:02;;;;;;;5.90;2.20;;;;;;;11.62;61.23;98256.35;105532;1257;96576;-81
2024/03/30 02:50:29;;;;;;;4.60;1.90;;;;;;;11.66;61.21;98251.58;106627;1253;109639;-81
2024/03/30 02:52:57;;;;;;;4.10;2.20;;;;;;;11.70;61.23;98249.66;105923;1254;96626;-82
2024/03/30 02:55:25;;;;;;;11.30;2.50;;;;;;;11.77;61.37;98248.46;106049;1254;107133;-81
2024/03/30 02:57:53;;;;;;;5.20;2.30;;;;;;;11.83;61.24;98243.64;105823;1254;97852;-82
2024/03/30 03:00:20;;;;;;;4.40;2.40;;;;;;;11.85;61.43;98245.06;105761;1253;97948;-82
2024/03/30 03:02:50;;;;;;;8.00;2.30;;;;;;;11.87;61.49;98241.17;105904;1254;111415;-82
2024/03/30 03:05:18;;;;;;;3.70;1.90;;;;;;;11.90;61.51;98241.59;105746;1256;97967;-82
2024/03/30 03:07:46;;;;;;;8.10;2.20;;;;;;;11.94;61.49;98239.10;106021;1255;105819;-82
2024/03/30 03:10:14;;;;;;;4.70;2.00;;;;;;;11.97;61.58;98234.42;106749;1253;97961;-82
2024/03/30 03:12:42;;;;;;;5.40;2.00;;;;;;;11.98;61.56;98232.36;106361;1257;97953;-83
2024/03/30 03:15:09;;;;;;;4.70;2.30;;;;;;;11.97;61.46;98232.09;105810;1257;111249;-81
2024/03/30 03:17:37;;;;;;;11.60;2.40;;;;;;;11.99;61.67;98232.25;105772;1257;97922;-81
2024/03/30 03:20:05;;;;;;;8.60;2.50;;;;;;;12.02;61.55;98231.97;106078;1257;107104;-82
2024/03/30 03:22:33;;;;;;;6.10;1.90;;;;;;;12.02;61.51;98230.17;105578;1257;99547;-82
2024/03/30 03:25:02;;;;;;;3.00;1.80;;;;;;;12.01;61.69;98223.36;105429;1257;98465;-81
2024/03/30 03:27:30;;;;;;;4.70;2.00;;;;;;;12.03;61.59;98224.48;105949;1254;111293;-81
2024/03/30 03:29:58;;;;;;;6.80;2.20;;;;;;;12.03;61.63;98224.84;106658;1254;97906;-82
2024/03/30 03:32:26;;;;;;;5.70;2.60;;;;;;;12.04;61.79;98227.92;106199;1256;107580;-81
2024/03/30 03:34:53;;;;;;;6.90;2.10;;;;;;;12.08;61.85;98228.12;106232;1257;97888;-82
2024/03/30 03:37:21;;;;;;;5.90;1.80;;;;;;;12.13;61.91;98231.34;105552;1257;98200;-79
2024/03/30 03:39:49;;;;;;;3.90;2.40;;;;;;;12.18;61.99;98233.55;105826;1254;111236;-82
2024/03/30 03:42:17;;;;;;;5.80;2.20;;;;;;;12.18;61.94;98236.05;105772;1254;97890;-80
2024/03/30 03:44:44;;;;;;;6.20;2.10;;;;;;;12.17;61.88;98238.83;106009;1253;107572;-81
2024/03/30 03:47:12;;;;;;;10.20;2.50;;;;;;;12.17;61.97;98237.39;106948;1256;97912;-80
2024/03/30 03:49:40;;;;;;;6.30;2.20;;;;;;;12.13;62.00;98232.27;106270;1256;98018;-82
2024/03/30 03:52:08;;;;;;;6.30;2.20;;;;;;;12.13;62.10;98228.55;106788;1257;109978;-82
2024/03/30 03:54:36;;;;;;;5.80;2.20;;;;;;;12.17;62.04;98231.59;106147;1251;98161;-83
2024/03/30 03:57:04;;;;;;;9.00;2.10;;;;;;;12.21;62.13;98232.42;105952;1256;107285;-82
2024/03/30 03:59:31;;;;;;;6.30;2.00;;;;;;;12.23;62.08;98232.45;105869;1255;97989;-82
2024/03/30 04:01:59;;;;;;;4.80;2.80;;;;;;;12.20;62.19;98237.45;105890;1256;98237;-82
2024/03/30 04:04:27;;;;;;;5.10;2.10;;;;;;;12.19;62.21;98236.50;105959;1254;110003;-81
2024/03/30 04:06:58;;;;;;;4.30;1.90;;;;;;;12.18;62.20;98244.02;106073;1256;97973;-81
2024/03/30 04:09:26;;;;;;;10.90;2.50;;;;;;;12.18;62.21;98242.39;106327;1260;106377;-81
2024/03/30 04:11:53;;;;;;;9.30;2.00;;;;;;;12.21;62.32;98239.37;106525;1251;97846;-82
2024/03/30 04:14:21;;;;;;;6.20;2.20;;;;;;;12.22;62.38;98241.38;106016;1256;98485;-79
2024/03/30 04:16:49;;;;;;;8.50;2.00;;;;;;;12.21;62.40;98245.57;105898;1257;111207;-81
2024/03/30 04:19:20;;;;;;;4.10;2.00;;;;;;;12.20;62.30;98243.34;105937;1256;97895;-80
2024/03/30 04:21:50;;;;;;;5.30;2.20;;;;;;;12.20;62.35;98244.44;105635;1251;107574;-79
2024/03/30 04:24:18;;;;;;;5.20;2.20;;;;;;;12.22;62.47;98247.45;105631;1251;97958;-80
2024/03/30 04:26:48;;;;;;;6.60;2.20;;;;;;;12.20;62.47;98248.63;105883;1251;98039;-79
2024/03/30 04:29:15;;;;;;;9.70;2.50;;;;;;;12.21;62.47;98249.86;108775;1253;109879;-80
2024/03/30 04:31:43;;;;;;;5.80;2.00;;;;;;;12.21;62.42;98252.70;108822;1251;96867;-80
2024/03/30 04:34:11;;;;;;;3.40;1.70;;;;;;;12.20;62.42;98245.11;108780;1251;107380;-80
2024/03/30 04:36:39;;;;;;;6.40;2.30;;;;;;;12.22;62.56;98248.70;108767;1251;95921;-81
2024/03/30 04:39:06;;;;;;;7.30;2.40;;;;;;;12.23;62.50;98246.48;108780;1251;95714;-81
2024/03/30 04:41:34;;;;;;;7.20;2.20;;;;;;;12.24;62.55;98253.45;108283;1253;110816;-80
2024/03/30 04:44:02;;;;;;;8.50;2.40;;;;;;;12.26;62.63;98253.33;105607;1256;99174;-80
2024/03/30 04:46:30;;;;;;;4.70;2.00;;;;;;;12.27;62.62;98251.61;106575;1257;106302;-80
2024/03/30 04:48:57;;;;;;;6.30;2.70;;;;;;;12.28;62.72;98252.52;105973;1256;97997;-79
2024/03/30 04:51:25;;;;;;;5.90;1.90;;;;;;;12.29;62.67;98251.95;106113;1256;97886;-80
2024/03/30 04:53:53;;;;;;;4.80;1.80;;;;;;;12.30;62.74;98255.58;106888;1256;109874;-80
2024/03/30 04:56:20;;;;;;;7.50;2.90;;;;;;;12.31;62.75;98255.09;106289;1256;98711;-80
2024/03/30 04:58:48;;;;;;;8.50;2.60;;;;;;;12.33;62.85;98252.27;105699;1251;107582;-81
2024/03/30 05:01:18;;;;;;;5.60;2.30;;;;;;;12.35;62.81;98252.65;105640;1255;97938;-80
2024/03/30 05:03:46;;;;;;;7.00;2.30;;;;;;;12.37;62.82;98262.04;105549;1254;97897;-80
2024/03/30 05:06:14;;;;;;;11.20;2.60;;;;;;;12.39;62.87;98263.64;105731;1255;111439;-80
2024/03/30 05:08:41;;;;;;;12.00;2.60;;;;;;;12.43;62.98;98271.67;105891;1254;99220;-80
2024/03/30 05:11:09;;;;;;;9.30;2.50;;;;;;;12.48;62.99;98269.88;105494;1256;108044;-79
2024/03/30 05:13:37;;;;;;;6.70;2.80;;;;;;;12.57;62.97;98273.73;106880;1256;97963;-79
2024/03/30 05:16:05;;;;;;;9.60;2.60;;;;;;;12.61;63.01;98273.14;105788;1257;97941;-79
2024/03/30 05:18:32;;;;;;;7.20;2.90;;;;;;;12.64;62.95;98274.10;105585;1251;110939;-79
2024/03/30 05:21:01;;;;;;;8.70;3.10;;;;;;;12.71;62.94;98280.10;105893;1254;98767;-79
2024/03/30 05:23:32;;;;;;;7.80;2.70;;;;;;;12.75;62.93;98276.68;105814;1257;107597;-79
2024/03/30 05:26:04;;;;;;;11.30;2.30;;;;;;;12.80;63.05;98274.98;105820;1257;97960;-80
2024/03/30 05:28:34;;;;;;;8.50;2.40;;;;;;;12.84;63.01;98276.36;106009;1257;98210;-80
2024/03/30 05:31:06;;;;;;;6.70;2.60;;;;;;;12.87;63.01;98274.14;107067;1257;111339;-79
2024/03/30 05:33:33;;;;;;;8.00;2.70;;;;;;;12.93;62.98;98278.02;105980;1251;97952;-79
2024/03/30 05:36:01;;;;;;;11.70;2.90;;;;;;;12.97;63.06;98277.83;107533;1251;107495;-80
2024/03/30 05:38:28;;;;;;;8.70;2.10;;;;;;;13.01;63.05;98278.29;105672;1257;97960;-80
2024/03/30 05:40:56;;;;;;;11.30;2.80;;;;;;;13.06;63.08;98280.98;105893;1255;99354;-79
2024/03/30 05:43:24;;;;;;;5.80;2.40;;;;;;;13.12;63.08;98279.27;105771;1257;111267;-79
2024/03/30 05:45:57;;;;;;;10.70;2.70;;;;;;;13.19;63.19;98277.34;105975;1256;97971;-79
2024/03/30 05:48:24;;;;;;;11.00;2.70;;;;;;;13.27;63.16;98279.27;106274;1257;107109;-80
2024/03/30 05:50:52;;;;;;;13.30;3.00;;;;;;;13.35;63.20;98275.98;106795;1251;97890;-79
2024/03/30 05:53:20;;;;;;;10.70;2.80;;;;;;;13.43;63.17;98276.29;106142;1254;98273;-80
2024/03/30 05:55:47;;;;;;;8.10;2.50;;;;;;;13.52;63.24;98272.81;105815;1251;111346;-79
2024/03/30 05:58:15;;;;;;;13.60;3.60;;;;;;;13.55;63.16;98272.78;105555;1257;97948;-79
2024/03/30 06:00:43;;;;;;;7.30;2.10;;;;;;;13.60;63.15;98268.65;105915;1256;107604;-80
2024/03/30 06:03:11;;;;;;;15.00;2.80;;;;;;;13.68;63.29;98266.59;105570;1256;97940;-79
2024/03/30 06:05:38;;;;;;;9.70;3.10;;;;;;;13.75;63.34;98268.01;105947;1255;97903;-80
2024/03/30 06:08:06;;;;;;;9.70;2.40;;;;;;;13.81;63.34;98268.84;108034;1251;111328;-80
2024/03/30 06:10:34;;;;;;;15.90;3.60;;;;;;;13.88;63.21;98270.84;106973;1255;97881;-80
2024/03/30 06:13:01;;;;;;;8.60;3.10;;;;;;;13.93;63.29;98266.77;106854;1251;108174;-80
2024/03/30 06:15:29;;;;;;;10.30;2.40;;;;;;;13.98;63.31;98270.73;106748;1254;97967;-80
2024/03/30 06:17:57;;;;;;;7.00;2.50;;;;;;;14.05;63.38;98272.80;106922;1255;97956;-80
2024/03/30 06:20:25;;;;;;;11.50;2.90;;;;;;;14.11;63.28;98271.55;106847;1256;109856;-80
2024/03/30 06:22:53;;;;;;;12.30;2.50;;;;;;;14.19;63.35;98271.39;106920;1257;97784;-80
2024/03/30 06:25:20;;;;;;;11.10;2.60;;;;;;;14.26;63.21;98276.66;106856;1257;106632;-80
2024/03/30 06:27:48;;;;;;;7.90;2.40;;;;;;;14.33;63.18;98271.24;106921;1251;98704;-79
2024/03/30 06:30:16;;;;;;;9.60;2.70;;;;;;;14.40;63.30;98271.71;106909;1255;98036;-80
2024/03/30 06:32:43;;;;;;;14.00;3.30;;;;;;;14.50;63.34;98271.28;106152;1256;111345;-79
2024/03/30 06:35:11;;;;;;;9.70;2.40;;;;;;;14.56;63.22;98268.02;105750;1251;97893;-80
2024/03/30 06:37:39;;;;;;;8.70;2.70;;;;;;;14.60;63.30;98275.61;105804;1257;106050;-79
2024/03/30 06:45:39;;;;;;;12.30;2.50;;;;;;;14.76;63.36;98282.92;105979;1251;111002;-79
2024/03/30 06:48:07;;;;;;;15.30;2.90;;;;;;;14.86;63.29;98281.21;105906;1255;97954;-80
2024/03/30 06:50:34;;;;;;;13.80;3.20;;;;;;;14.91;63.12;98277.28;105803;1257;107598;-80
2024/03/30 06:53:02;;;;;;;11.20;2.60;;;;;;;14.95;63.28;98276.89;106250;1251;97941;-80
2024/03/30 06:55:30;;;;;;;10.60;2.70;;;;;;;15.01;63.14;98276.98;106121;1254;98173;-80
2024/03/30 06:57:57;;;;;;;11.30;2.80;;;;;;;15.09;63.11;98275.70;105896;1256;111257;-79
2024/03/30 07:00:25;;;;;;;7.80;2.60;;;;;;;15.14;63.24;98278.90;105571;1255;97904;-72
2024/03/30 07:02:52;;;;;;;8.70;2.60;;;;;;;15.22;63.23;98281.79;105611;1257;107077;-81
2024/03/30 07:05:20;;;;;;;10.70;2.60;;;;;;;15.32;63.14;98282.94;105990;1257;97947;-81
2024/03/30 07:07:48;;;;;;;16.00;3.00;;;;;;;15.40;63.13;98288.73;105826;1251;97957;-80
2024/03/30 07:10:17;;;;;;;11.30;2.90;;;;;;;15.46;63.11;98293.44;106374;1255;111315;-81
2024/03/30 07:12:47;;;;;;;13.50;2.80;;;;;;;15.56;63.25;98298.06;106694;1256;98037;-81
2024/03/30 07:15:16;;;;;;;12.40;3.50;;;;;;;15.65;63.13;98300.86;106043;1255;107570;-81
2024/03/30 07:17:44;;;;;;;18.60;3.20;;;;;;;15.72;63.08;98302.09;106017;1255;98049;-82
2024/03/30 07:20:16;;;;;;;11.60;2.70;;;;;;;15.81;63.03;98305.10;106665;1251;97969;-81
2024/03/30 07:22:44;;;;;;;12.10;2.60;;;;;;;15.87;62.88;98302.35;105871;1255;111609;-81
2024/03/30 07:25:12;;;;;;;13.70;3.50;;;;;;;15.93;62.89;98298.68;105869;1273;98776;-81
2024/03/30 07:27:39;;;;;;;12.30;2.70;;;;;;;15.99;62.99;98301.44;105993;1256;107659;-81
2024/03/30 07:30:10;;;;;;;11.80;3.50;;;;;;;16.05;62.93;98304.17;106207;1257;98066;-80
2024/03/30 07:32:37;;;;;;;8.40;2.50;;;;;;;16.13;63.07;98305.98;106229;1255;98037;-80
2024/03/30 07:35:10;;;;;;;11.30;2.40;;;;;;;16.23;62.78;98309.65;105928;1251;111502;-81
2024/03/30 07:37:38;;;;;;;16.20;3.70;;;;;;;16.29;62.87;98300.01;106321;1252;98046;-80
2024/03/30 07:40:06;;;;;;;9.00;3.10;;;;;;;16.38;62.74;98298.11;106123;1251;107600;-80
2024/03/30 07:42:35;;;;;;;14.70;3.20;;;;;;;16.44;62.65;98293.89;105851;1254;98112;-80
2024/03/30 07:45:03;;;;;;;14.70;2.50;;;;;;;16.48;62.62;98294.23;106397;1255;97964;-81
2024/03/30 07:47:31;;;;;;;9.90;3.00;;;;;;;16.54;62.64;98294.14;106413;1256;110838;-81
2024/03/30 07:50:01;;;;;;;15.70;3.00;;;;;;;16.57;62.59;98286.11;105986;1256;97938;-81
2024/03/30 07:52:29;;;;;;;10.90;2.80;;;;;;;16.62;62.51;98287.86;106116;1256;108125;-81
2024/03/30 07:54:57;;;;;;;12.10;2.90;;;;;;;16.69;62.43;98287.30;106122;1251;98025;-82
2024/03/30 07:57:25;;;;;;;12.00;3.10;;;;;;;16.76;62.42;98290.09;106057;1251;97878;-81
2024/03/30 07:59:53;;;;;;;9.90;2.50;;;;;;;16.83;62.46;98296.05;105933;1256;110338;-81
2024/03/30 08:02:21;;;;;;;14.50;3.70;;;;;;;16.92;62.36;98302.00;105976;1251;99278;-81
2024/03/30 08:04:52;;;;;;;11.20;3.10;;;;;;;16.98;62.30;98303.80;106506;1257;106807;-81
2024/03/30 08:07:20;;;;;;;15.10;3.70;;;;;;;17.02;62.27;98304.61;106536;1256;98028;-81
2024/03/30 08:09:48;;;;;;;11.90;3.00;;;;;;;17.04;62.15;98303.96;106023;1251;97953;-80
2024/03/30 08:12:16;;;;;;;15.90;3.40;;;;;;;17.10;62.19;98300.85;105992;1250;111293;-81
2024/03/30 08:14:44;;;;;;;12.60;2.80;;;;;;;17.15;62.02;98305.88;105744;1257;97900;-82
2024/03/30 08:17:12;;;;;;;17.40;2.90;;;;;;;17.20;61.98;98303.11;105968;1256;106354;-82
2024/03/30 08:19:39;;;;;;;17.80;3.60;;;;;;;17.22;61.81;98302.56;106155;1256;98067;-81
2024/03/30 08:22:07;;;;;;;20.00;3.50;;;;;;;17.25;61.85;98301.69;105881;1251;97976;-81
2024/03/30 08:24:35;;;;;;;14.10;2.80;;;;;;;17.27;61.81;98296.96;107013;1255;110746;-80
2024/03/30 08:27:07;;;;;;;17.60;3.50;;;;;;;17.34;61.70;98293.34;105961;1251;98171;-81
2024/03/30 08:29:50;;;;;;;11.40;2.90;;;;;;;17.39;61.73;98291.64;105842;1256;107730;-80
2024/03/30 08:32:24;;;;;;;7.80;3.00;;;;;;;17.46;61.65;98295.05;105822;1251;97909;-80
2024/03/30 08:34:53;;;;;;;12.90;2.50;;;;;;;17.55;61.62;98297.55;106156;1251;98353;-81
2024/03/30 08:37:24;;;;;;;13.30;3.20;;;;;;;17.60;61.47;98299.91;106211;1257;110804;-80
2024/03/30 08:39:55;;;;;;;13.30;3.20;;;;;;;17.69;61.41;98303.20;106661;1251;97898;-80
2024/03/30 08:42:23;;;;;;;13.00;3.50;;;;;;;17.70;61.37;98312.36;106017;1257;107176;-81
2024/03/30 08:44:53;;;;;;;9.80;2.90;;;;;;;17.75;61.33;98317.18;106009;1251;97980;-81
2024/03/30 08:47:25;;;;;;;11.90;2.90;;;;;;;17.82;61.28;98325.39;106030;1251;99418;-81
2024/03/30 08:49:53;;;;;;;16.30;3.50;;;;;;;17.83;61.18;98323.45;106297;1251;111055;-82
2024/03/30 08:52:21;;;;;;;18.90;4.10;;;;;;;17.80;60.94;98326.46;106001;1253;97980;-80
2024/03/30 08:54:49;;;;;;;13.50;3.00;;;;;;;17.77;60.80;98326.52;105989;1261;106339;-82
2024/03/30 08:57:20;;;;;;;15.20;4.40;;;;;;;17.80;60.95;98325.02;106412;1256;97964;-82
2024/03/30 08:59:50;;;;;;;15.00;4.30;;;;;;;17.84;60.89;98327.05;106357;1251;97961;-81
2024/03/30 09:02:20;;;;;;;17.00;4.10;;;;;;;17.91;60.80;98320.16;105973;1251;111278;-81
2024/03/30 09:04:49;;;;;;;14.50;3.70;;;;;;;18.02;60.87;98319.17;106341;1251;99205;-80
2024/03/30 09:07:20;;;;;;;17.90;3.70;;;;;;;18.10;60.90;98322.92;106233;1265;107455;-80
2024/03/30 09:09:48;;;;;;;14.40;3.40;;;;;;;18.14;60.54;98320.68;105985;1251;97903;-73
2024/03/30 09:12:16;;;;;;;18.80;4.10;;;;;;;18.15;60.43;98322.82;105660;1255;98037;-73
2024/03/30 09:14:44;;;;;;;17.40;3.90;;;;;;;18.13;60.38;98317.89;105752;1255;111086;-75
2024/03/30 09:17:12;;;;;;;21.90;4.60;;;;;;;18.22;60.59;98322.27;105448;1257;98095;-79
2024/03/30 09:19:39;;;;;;;18.80;4.00;;;;;;;18.32;60.40;98325.35;105523;1264;107179;-80
2024/03/30 09:22:07;;;;;;;23.00;4.00;;;;;;;18.36;60.21;98325.86;105844;1256;97977;-82
2024/03/30 09:25:13;;;;;;;17.00;3.10;;;;;;;18.38;60.18;98321.23;106295;1251;97861;-82
2024/03/30 09:27:59;;;;;;;15.00;3.80;;;;;;;18.49;60.18;98316.10;106037;1255;111379;-82
2024/03/30 09:30:30;;;;;;;10.50;3.10;;;;;;;18.55;59.94;98315.48;106092;1251;98972;-82
2024/03/30 09:32:58;;;;;;;17.60;3.80;;;;;;;18.57;59.84;98326.43;106751;1251;108062;-82
2024/03/30 09:35:34;;;;;;;15.50;3.60;;;;;;;18.55;59.77;98321.23;105804;1251;97957;-82
2024/03/30 09:38:03;;;;;;;23.80;4.10;;;;;;;18.62;59.89;98327.23;106160;1251;97883;-82
2024/03/30 09:40:35;;;;;;;25.50;4.40;;;;;;;18.76;59.71;98317.91;105967;1256;113622;-82
2024/03/30 09:43:08;;;;;;;24.20;3.80;;;;;;;18.80;59.49;98315.61;105834;1257;97918;-80
2024/03/30 09:45:37;;;;;;;16.70;3.90;;;;;;;18.90;59.47;98319.52;106426;1255;108133;-82
2024/03/30 09:48:11;;;;;;;17.80;4.40;;;;;;;18.95;59.38;98319.05;105909;1252;98050;-81
2024/03/30 09:50:51;;;;;;;21.00;4.30;;;;;;;18.97;59.03;98320.37;106803;1256;98678;-81
2024/03/30 09:53:24;;;;;;;17.30;3.30;;;;;;;18.98;59.21;98315.99;105985;1257;110114;-81
2024/03/30 09:55:55;;;;;;;20.30;4.10;;;;;;;19.05;59.10;98319.72;105978;1255;97958;-81
2024/03/30 09:58:32;;;;;;;17.90;4.10;;;;;;;19.05;58.78;98320.83;105979;1256;107207;-82
2024/03/30 10:01:17;;;;;;;22.10;3.90;;;;;;;19.12;58.90;98322.27;105860;1257;98044;-81
2024/03/30 10:04:01;;;;;;;18.90;3.90;;;;;;;19.22;58.73;98322.23;105756;1251;97996;-80
2024/03/30 10:06:44;;;;;;;16.40;3.90;;;;;;;19.27;58.65;98320.32;106447;1261;111275;-81
2024/03/30 10:09:19;;;;;;;18.20;3.50;;;;;;;19.32;58.39;98330.38;107058;1256;98037;-81
2024/03/30 10:11:53;;;;;;;21.80;4.00;;;;;;;19.40;58.54;98322.96;106426;1251;107996;-80
2024/03/30 10:14:33;;;;;;;15.60;3.50;;;;;;;19.44;58.26;98322.91;106377;1251;97957;-81
2024/03/30 10:17:01;;;;;;;20.40;4.10;;;;;;;19.47;57.91;98322.95;107613;1253;97967;-81
2024/03/30 10:19:32;;;;;;;23.50;3.90;;;;;;;19.45;57.94;98323.17;106235;1257;111639;-73
2024/03/30 10:22:01;;;;;;;15.70;4.10;;;;;;;19.42;57.86;98321.89;105690;1251;97992;-77
2024/03/30 10:24:30;;;;;;;21.20;4.60;;;;;;;19.44;57.87;98315.40;105672;1257;107618;-75
2024/03/30 10:26:57;;;;;;;17.40;3.50;;;;;;;19.54;57.99;98312.44;105781;1257;98041;-76
2024/03/30 10:29:25;;;;;;;20.40;3.60;;;;;;;19.62;57.80;98309.27;105440;1257;97903;-73
2024/03/30 10:31:52;;;;;;;18.20;4.10;;;;;;;19.69;57.68;98308.27;105693;1256;110537;-75
2024/03/30 10:34:23;;;;;;;25.40;4.20;;;;;;;19.75;57.47;98310.14;105703;1257;97883;-81
2024/03/30 10:37:18;;;;;;;17.10;3.50;;;;;;;19.74;57.30;98305.11;106010;1256;108751;-81
2024/03/30 10:39:48;;;;;;;18.40;3.60;;;;;;;19.73;57.05;98307.66;105940;1251;97955;-82
2024/03/30 10:42:17;;;;;;;20.90;4.50;;;;;;;19.77;57.26;98305.26;105913;1256;98044;-81
2024/03/30 10:44:45;;;;;;;26.60;4.90;;;;;;;19.80;57.27;98300.26;106258;1251;109911;-81
2024/03/30 10:47:14;;;;;;;19.80;4.20;;;;;;;19.85;57.26;98303.27;106072;1256;98063;-82
2024/03/30 10:49:44;;;;;;;27.30;5.40;;;;;;;19.96;57.06;98299.20;106307;1251;107337;-81
2024/03/30 10:52:15;;;;;;;20.70;4.10;;;;;;;20.01;56.69;98299.98;106444;1251;97883;-81
2024/03/30 10:54:43;;;;;;;17.70;4.00;;;;;;;20.02;56.80;98300.79;106339;1257;98018;-81
2024/03/30 10:57:15;;;;;;;15.80;4.60;;;;;;;20.08;56.79;98304.42;106273;1256;111751;-80
2024/03/30 10:59:46;;;;;;;22.50;4.90;;;;;;;20.15;56.59;98306.41;106353;1256;98005;-81
2024/03/30 11:03:48;;;;;;;26.40;3.90;;;;;;;20.20;56.38;98294.77;103735;1288;636994;-80
2024/03/30 11:06:16;;;;;;;20.00;4.80;;;;;;;20.26;56.51;98289.38;106603;1267;95295;-81
2024/03/30 11:08:47;;;;;;;21.80;4.40;;;;;;;20.36;56.34;98292.48;105121;1267;95282;-80
2024/03/30 11:11:16;;;;;;;21.40;3.90;;;;;;;20.40;56.14;98293.23;104883;1266;108432;-81
2024/03/30 11:13:44;;;;;;;25.70;4.50;;;;;;;20.42;56.11;98292.67;104925;1270;95293;-80
2024/03/30 11:16:14;;;;;;;20.10;4.50;;;;;;;20.43;55.75;98286.71;105025;1267;182388;-80
2024/03/30 11:19:18;;;;;;;16.60;4.30;;;;;;;20.50;56.10;98292.47;105563;1263;95282;-81
2024/03/30 11:22:30;;;;;;;17.30;3.50;;;;;;;20.55;55.60;98285.44;105613;1257;95393;-81
2024/03/30 11:25:09;;;;;;;18.80;3.60;;;;;;;20.56;55.73;98280.09;105515;1254;108646;-80
2024/03/30 11:27:46;;;;;;;15.70;3.60;;;;;;;20.67;55.73;98280.66;105804;1254;95565;-79
2024/03/30 11:30:36;;;;;;;23.50;4.00;;;;;;;20.75;55.63;98279.61;105737;1269;107559;-80
2024/03/30 11:33:25;;;;;;;24.70;3.80;;;;;;;20.80;55.38;98280.34;105867;1253;96624;-80
2024/03/30 11:36:16;;;;;;;16.50;4.20;;;;;;;20.86;55.29;98278.83;105730;1253;97594;-80